createdAt,value
2019-03-23T00:01:38.475Z,45.10
2019-03-23T00:04:11.516Z,43.80
2019-03-23T00:07:01.430Z,45.03
2019-03-23T00:09:34.788Z,41.50
2019-03-23T00:12:08.875Z,38.57
2019-03-23T00:14:45.156Z,41.60
2019-03-23T00:17:23.550Z,45.00
2019-03-23T00:19:58.074Z,45.80
2019-03-23T00:22:33.031Z,46.37
2019-03-23T00:25:04.697Z,43.80
2019-03-23T00:27:49.723Z,45.43
2019-03-23T00:30:20.800Z,53.30
2019-03-23T00:32:54.154Z,53.90
2019-03-23T00:35:27.382Z,53.80
2019-03-23T00:37:58.692Z,59.30
2019-03-23T00:40:33.636Z,58.63
2019-03-23T00:43:04.642Z,55.33
2019-03-23T00:45:40.091Z,58.27
2019-03-23T00:48:16.725Z,58.33
2019-03-23T00:50:48.859Z,54.80
2019-03-23T00:53:21.835Z,57.30
2019-03-23T00:56:05.926Z,58.63
2019-03-23T00:58:39.285Z,53.23
2019-03-23T01:01:11.161Z,52.43
2019-03-23T01:03:44.308Z,53.40
2019-03-23T01:06:20.854Z,54.80
2019-03-23T01:08:51.985Z,55.73
2019-03-23T01:11:24.671Z,57.20
2019-03-23T01:14:05.320Z,55.93
2019-03-23T01:16:41.994Z,52.40
2019-03-23T01:19:15.130Z,56.97
2019-03-23T01:21:49.259Z,60.53
2019-03-23T01:24:25.118Z,58.63
2019-03-23T01:26:56.364Z,62.63
2019-03-23T01:29:32.821Z,56.67
2019-03-23T01:32:07.109Z,61.87
2019-03-23T01:34:41.278Z,54.30
2019-03-23T01:37:20.212Z,54.77
2019-03-23T01:39:53.447Z,51.77
2019-03-23T01:42:28.943Z,52.57
2019-03-23T01:45:04.802Z,56.80
2019-03-23T01:47:52.373Z,51.57
2019-03-23T01:50:23.597Z,52.83
2019-03-23T01:52:58.199Z,52.10
2019-03-23T01:55:29.174Z,47.97
2019-03-23T01:58:00.215Z,57.63
2019-03-23T02:00:34.121Z,47.20
2019-03-23T02:03:23.843Z,53.93
2019-03-23T02:06:03.399Z,52.57
2019-03-23T02:08:35.260Z,52.87
2019-03-23T02:11:09.691Z,54.27
2019-03-23T02:13:59.334Z,49.67
2019-03-23T02:16:32.347Z,51.40
2019-03-23T02:19:04.709Z,50.97
2019-03-23T02:21:39.278Z,52.80
2019-03-23T02:24:11.655Z,52.23
2019-03-23T02:26:46.178Z,51.30
2019-03-23T02:29:20.506Z,52.33
2019-03-23T02:31:53.393Z,47.60
2019-03-23T02:34:43.017Z,45.47
2019-03-23T02:37:27.276Z,44.60
2019-03-23T02:39:51.803Z,43.83
2019-03-23T02:42:24.852Z,45.93
2019-03-23T02:44:58.398Z,44.10
2019-03-23T02:47:29.850Z,49.17
2019-03-23T02:50:01.649Z,42.53
2019-03-23T02:52:51.380Z,45.13
2019-03-23T02:55:22.842Z,46.17
2019-03-23T02:57:55.642Z,45.07
2019-03-23T03:00:30.244Z,45.23
2019-03-23T03:03:03.157Z,47.93
2019-03-23T03:05:35.600Z,47.63
2019-03-23T03:08:20.039Z,50.67
2019-03-23T03:10:53.504Z,52.40
2019-03-23T03:13:25.597Z,42.77
2019-03-23T03:15:56.763Z,43.03
2019-03-23T03:18:28.702Z,44.53
2019-03-23T03:20:59.694Z,45.10
2019-03-23T03:23:33.584Z,45.40
2019-03-23T03:26:04.809Z,41.90
2019-03-23T03:28:38.324Z,46.30
2019-03-23T03:31:11.760Z,46.73
2019-03-23T03:33:49.139Z,44.50
2019-03-23T03:36:20.255Z,44.93
2019-03-23T03:38:53.803Z,43.43
2019-03-23T03:41:26.202Z,46.10
2019-03-23T03:43:57.776Z,40.47
2019-03-23T03:46:29.849Z,46.30
2019-03-23T03:49:12.374Z,45.47
2019-03-23T03:51:38.243Z,45.93
2019-03-23T03:54:10.837Z,53.17
2019-03-23T03:56:44.892Z,46.13
2019-03-23T03:59:17.052Z,46.53
2019-03-23T04:01:50.103Z,42.23
2019-03-23T04:04:21.731Z,44.13
2019-03-23T04:06:52.898Z,44.63
2019-03-23T04:09:26.209Z,46.40
2019-03-23T04:11:59.813Z,45.07
2019-03-23T04:14:34.760Z,49.00
2019-03-23T04:17:24.554Z,42.13
2019-03-23T04:20:11.392Z,41.40
2019-03-23T04:22:47.931Z,44.47
2019-03-23T04:25:20.630Z,41.10
2019-03-23T04:27:55.508Z,42.70
2019-03-23T04:30:30.824Z,37.97
2019-03-23T04:33:01.804Z,49.57
2019-03-23T04:35:35.239Z,47.07
2019-03-23T04:38:08.912Z,42.40
2019-03-23T04:40:41.313Z,47.40
2019-03-23T04:43:14.842Z,42.23
2019-03-23T04:45:49.848Z,44.30
2019-03-23T04:48:23.996Z,47.37
2019-03-23T04:50:57.291Z,32.90
2019-03-23T04:53:30.385Z,26.53
2019-03-23T04:56:05.030Z,23.87
2019-03-23T04:58:36.271Z,33.10
2019-03-23T05:01:09.290Z,26.03
2019-03-23T05:03:53.284Z,25.00
2019-03-23T05:06:26.185Z,29.07
2019-03-23T05:09:00.028Z,25.03
2019-03-23T05:11:49.978Z,25.20
2019-03-23T05:14:23.167Z,25.47
2019-03-23T05:16:57.605Z,30.93
2019-03-23T05:19:32.777Z,28.80
2019-03-23T05:22:05.042Z,28.80
2019-03-23T05:24:50.147Z,36.70
2019-03-23T05:27:24.128Z,30.30
2019-03-23T05:29:57.455Z,27.60
2019-03-23T05:32:31.441Z,31.70
2019-03-23T05:35:21.581Z,33.40
2019-03-23T05:37:54.102Z,29.00
2019-03-23T05:40:27.395Z,36.13
2019-03-23T05:43:00.123Z,29.37
2019-03-23T05:45:34.242Z,31.10
2019-03-23T05:48:08.428Z,37.30
2019-03-23T05:50:43.046Z,33.80
2019-03-23T05:53:16.305Z,32.57
2019-03-23T05:55:47.649Z,38.73
2019-03-23T05:58:33.811Z,34.70
2019-03-23T06:01:05.356Z,34.97
2019-03-23T06:03:40.216Z,37.93
2019-03-23T06:06:11.438Z,33.20
2019-03-23T06:08:54.795Z,41.10
2019-03-23T06:11:25.205Z,32.00
2019-03-23T06:13:59.537Z,35.30
2019-03-23T06:16:34.328Z,47.37
2019-03-23T06:19:06.093Z,38.53
2019-03-23T06:21:39.415Z,44.57
2019-03-23T06:24:29.280Z,39.23
2019-03-23T06:27:19.170Z,39.13
2019-03-23T06:30:09.234Z,40.83
2019-03-23T06:32:55.409Z,55.00
2019-03-23T06:35:27.724Z,46.13
2019-03-23T06:38:05.482Z,46.87
2019-03-23T06:40:36.485Z,53.63
2019-03-23T06:43:08.955Z,50.67
2019-03-23T06:45:41.654Z,52.27
2019-03-23T06:48:14.726Z,68.10
2019-03-23T06:50:50.670Z,71.90
2019-03-23T06:53:29.509Z,72.35
2019-03-23T06:56:08.559Z,74.00
2019-03-23T06:58:42.672Z,77.73
2019-03-23T07:01:32.578Z,84.23
2019-03-23T07:04:06.448Z,88.87
2019-03-23T07:06:39.097Z,89.80
2019-03-23T07:09:16.366Z,83.50
2019-03-23T07:11:46.577Z,90.43
2019-03-23T07:14:18.077Z,102.27
2019-03-23T07:16:52.013Z,90.10
2019-03-23T07:19:23.905Z,85.10
2019-03-23T07:21:59.418Z,87.17
2019-03-23T07:24:39.652Z,74.43
2019-03-23T07:27:27.045Z,80.17
2019-03-23T07:29:59.300Z,81.57
2019-03-23T07:32:33.396Z,80.07
2019-03-23T07:35:17.005Z,80.07
2019-03-23T07:37:50.469Z,81.37
2019-03-23T07:40:25.359Z,76.03
2019-03-23T07:42:58.635Z,89.07
2019-03-23T07:45:31.339Z,81.90
2019-03-23T07:48:04.087Z,87.33
2019-03-23T07:50:37.831Z,86.23
2019-03-23T07:53:12.171Z,85.97
2019-03-23T07:55:45.851Z,82.67
2019-03-23T07:58:35.725Z,85.03
2019-03-23T08:01:08.866Z,84.97
2019-03-23T08:03:39.991Z,80.90
2019-03-23T08:06:11.079Z,82.20
2019-03-23T08:08:42.490Z,96.07
2019-03-23T08:11:20.024Z,97.37
2019-03-23T08:13:53.263Z,90.00
2019-03-23T08:16:33.118Z,91.00
2019-03-23T08:19:08.338Z,82.80
2019-03-23T08:21:42.217Z,88.87
2019-03-23T08:24:15.010Z,90.20
2019-03-23T08:26:49.726Z,84.50
2019-03-23T08:29:24.504Z,77.70
2019-03-23T08:31:59.744Z,82.17
2019-03-23T08:34:33.883Z,78.37
2019-03-23T08:37:05.289Z,80.20
2019-03-23T08:39:48.119Z,89.93
2019-03-23T08:42:14.127Z,85.10
2019-03-23T08:44:47.646Z,85.23
2019-03-23T08:47:21.831Z,95.37
2019-03-23T08:49:54.220Z,96.30
2019-03-23T08:52:29.430Z,87.60
2019-03-23T08:55:05.106Z,115.83
2019-03-23T08:57:38.474Z,115.90
2019-03-23T09:00:13.345Z,84.77
2019-03-23T09:02:46.464Z,78.67
2019-03-23T09:05:22.810Z,77.03
2019-03-23T09:07:55.896Z,82.17
2019-03-23T09:10:30.107Z,76.90
2019-03-23T09:13:03.322Z,75.50
2019-03-23T09:15:35.910Z,75.93
2019-03-23T09:18:09.214Z,74.30
2019-03-23T09:20:47.852Z,76.60
2019-03-23T09:23:22.243Z,78.23
2019-03-23T09:25:53.286Z,86.20
2019-03-23T09:28:26.655Z,85.57
2019-03-23T09:30:59.693Z,77.70
2019-03-23T09:33:34.210Z,78.47
2019-03-23T09:36:08.876Z,78.53
2019-03-23T09:38:41.642Z,78.10
2019-03-23T09:41:12.961Z,76.90
2019-03-23T09:43:44.756Z,75.90
2019-03-23T09:46:19.142Z,76.53
2019-03-23T09:48:51.953Z,79.83
2019-03-23T09:51:29.285Z,75.80
2019-03-23T09:54:00.738Z,73.80
2019-03-23T09:56:39.993Z,83.87
2019-03-23T09:59:11.651Z,76.20
2019-03-23T10:01:44.429Z,69.77
2019-03-23T10:04:19.107Z,70.90
2019-03-23T10:06:52.240Z,82.93
2019-03-23T10:09:24.397Z,76.43
2019-03-23T10:11:59.258Z,69.50
2019-03-23T10:14:34.113Z,72.13
2019-03-23T10:17:24.144Z,68.20
2019-03-23T10:20:14.032Z,61.00
2019-03-23T10:23:05.889Z,62.40
2019-03-23T10:25:56.281Z,62.87
2019-03-23T10:28:45.814Z,71.30
2019-03-23T10:31:35.762Z,76.07
2019-03-23T10:34:32.654Z,63.67
2019-03-23T10:37:22.926Z,68.77
2019-03-23T10:40:13.266Z,65.57
2019-03-23T10:43:03.653Z,67.17
2019-03-23T10:45:52.746Z,70.20
2019-03-23T10:48:45.544Z,64.47
2019-03-23T10:51:35.451Z,58.23
2019-03-23T10:54:05.957Z,66.13
2019-03-23T10:56:40.565Z,58.90
2019-03-23T10:59:12.978Z,63.87
2019-03-23T11:01:46.681Z,67.97
2019-03-23T11:04:19.698Z,61.83
2019-03-23T11:06:52.756Z,61.70
2019-03-23T11:09:27.243Z,67.23
2019-03-23T11:12:00.327Z,63.47
2019-03-23T11:14:31.380Z,59.70
2019-03-23T11:17:04.243Z,68.90
2019-03-23T11:19:35.923Z,61.20
2019-03-23T11:22:19.533Z,59.17
2019-03-23T11:24:52.685Z,56.03
2019-03-23T11:27:26.338Z,59.93
2019-03-23T11:29:57.714Z,56.97
2019-03-23T11:32:30.964Z,58.93
2019-03-23T11:35:08.027Z,53.97
2019-03-23T11:37:43.606Z,51.87
2019-03-23T11:40:16.460Z,52.03
2019-03-23T11:42:50.639Z,51.70
2019-03-23T11:45:21.666Z,55.17
2019-03-23T11:47:58.248Z,52.53
2019-03-23T11:50:30.826Z,57.10
2019-03-23T11:53:03.723Z,54.10
2019-03-23T11:55:38.162Z,53.30
2019-03-23T11:58:10.941Z,48.90
2019-03-23T12:00:43.934Z,45.87
2019-03-23T12:03:15.927Z,44.57
2019-03-23T12:05:50.691Z,36.43
2019-03-23T12:08:26.894Z,36.90
2019-03-23T12:11:03.112Z,37.70
2019-03-23T12:13:33.672Z,32.30
2019-03-23T12:16:13.433Z,29.07
2019-03-23T12:18:47.837Z,29.33
2019-03-23T12:21:37.578Z,32.70
2019-03-23T12:24:16.340Z,34.07
2019-03-23T12:26:49.127Z,36.73
2019-03-23T12:29:21.899Z,36.33
2019-03-23T12:32:11.756Z,34.73
2019-03-23T12:34:45.272Z,34.40
2019-03-23T12:37:17.769Z,34.40
2019-03-23T12:39:49.115Z,30.20
2019-03-23T12:42:21.990Z,29.20
2019-03-23T12:44:55.895Z,31.33
2019-03-23T12:47:28.120Z,29.93
2019-03-23T12:50:01.274Z,31.30
2019-03-23T12:52:36.007Z,29.63
2019-03-23T12:55:09.919Z,30.03
2019-03-23T12:57:40.904Z,30.80
2019-03-23T13:00:13.391Z,32.43
2019-03-23T13:02:47.313Z,37.47
2019-03-23T13:05:19.967Z,31.00
2019-03-23T13:07:53.010Z,32.27
2019-03-23T13:10:25.272Z,34.10
2019-03-23T13:12:59.620Z,32.87
2019-03-23T13:15:34.041Z,33.53
2019-03-23T13:18:12.525Z,36.30
2019-03-23T13:21:03.107Z,34.73
2019-03-23T13:23:40.784Z,31.90
2019-03-23T13:26:12.842Z,38.40
2019-03-23T13:28:44.986Z,34.83
2019-03-23T13:31:15.987Z,33.63
2019-03-23T13:33:47.990Z,32.43
2019-03-23T13:36:19.403Z,31.30
2019-03-23T13:38:54.231Z,29.43
2019-03-23T13:41:25.733Z,33.43
2019-03-23T13:43:59.388Z,35.97
2019-03-23T13:46:40.864Z,31.60
2019-03-23T13:49:12.957Z,31.80
2019-03-23T13:51:47.327Z,29.03
2019-03-23T13:54:20.136Z,31.63
2019-03-23T13:56:54.830Z,30.47
2019-03-23T13:59:28.332Z,28.97
2019-03-23T14:02:00.965Z,35.20
2019-03-23T14:04:33.300Z,34.67
2019-03-23T14:07:05.442Z,33.10
2019-03-23T14:09:38.674Z,35.10
2019-03-23T14:12:12.296Z,37.30
2019-03-23T14:14:43.378Z,35.20
2019-03-23T14:17:17.089Z,34.13
2019-03-23T14:20:07.573Z,31.63
2019-03-23T14:23:02.614Z,35.70
2019-03-23T14:25:47.808Z,33.50
2019-03-23T14:28:37.148Z,35.37
2019-03-23T14:31:26.556Z,35.13
2019-03-23T14:34:13.668Z,33.10
2019-03-23T14:36:46.563Z,34.60
2019-03-23T14:39:19.223Z,29.30
2019-03-23T14:42:04.792Z,35.93
2019-03-23T14:44:31.537Z,35.10
2019-03-23T14:47:03.672Z,37.00
2019-03-23T14:49:37.304Z,34.83
2019-03-23T14:52:27.575Z,35.40
2019-03-23T14:55:06.853Z,33.63
2019-03-23T14:57:40.508Z,35.97
2019-03-23T15:00:14.106Z,34.97
2019-03-23T15:02:46.665Z,34.90
2019-03-23T15:05:19.739Z,40.07
2019-03-23T15:07:56.341Z,34.33
2019-03-23T15:10:27.758Z,38.20
2019-03-23T15:13:03.732Z,35.50
2019-03-23T15:15:35.805Z,33.87
2019-03-23T15:18:09.179Z,37.17
2019-03-23T15:20:41.752Z,36.27
2019-03-23T15:23:12.950Z,40.97
2019-03-23T15:25:44.807Z,39.80
2019-03-23T15:28:22.929Z,32.73
2019-03-23T15:30:55.742Z,36.37
2019-03-23T15:33:28.996Z,38.30
2019-03-23T15:36:03.770Z,38.70
2019-03-23T15:38:41.494Z,37.17
2019-03-23T15:41:13.152Z,39.50
2019-03-23T15:43:44.907Z,36.27
2019-03-23T15:46:16.739Z,39.20
2019-03-23T15:48:49.925Z,37.83
2019-03-23T15:51:25.120Z,38.73
2019-03-23T15:53:56.201Z,35.57
2019-03-23T15:56:28.050Z,38.83
2019-03-23T15:59:00.026Z,37.90
2019-03-23T16:01:43.710Z,38.10
2019-03-23T16:04:21.296Z,39.40
2019-03-23T16:06:56.882Z,38.90
2019-03-23T16:09:28.850Z,43.17
2019-03-23T16:12:00.887Z,46.10
2019-03-23T16:14:32.983Z,44.10
2019-03-23T16:17:06.595Z,45.80
2019-03-23T16:19:43.774Z,38.23
2019-03-23T16:22:17.931Z,39.63
2019-03-23T16:24:50.192Z,37.60
2019-03-23T16:27:24.128Z,39.57
2019-03-23T16:29:57.521Z,41.20
2019-03-23T16:32:29.209Z,42.73
2019-03-23T16:35:06.470Z,40.60
2019-03-23T16:37:39.764Z,42.80
2019-03-23T16:40:11.203Z,42.83
2019-03-23T16:42:45.665Z,37.10
2019-03-23T16:45:18.387Z,38.00
2019-03-23T16:47:52.000Z,40.03
2019-03-23T16:50:23.116Z,34.43
2019-03-23T16:52:56.245Z,36.17
2019-03-23T16:55:29.874Z,38.10
2019-03-23T16:58:01.136Z,32.90
2019-03-23T17:00:38.799Z,38.73
2019-03-23T17:03:11.042Z,35.00
2019-03-23T17:05:46.123Z,34.10
2019-03-23T17:08:19.069Z,38.37
2019-03-23T17:11:09.068Z,38.23
2019-03-23T17:13:43.906Z,37.10
2019-03-23T17:16:16.417Z,37.90
2019-03-23T17:18:50.055Z,36.10
2019-03-23T17:21:22.816Z,43.80
2019-03-23T17:23:55.097Z,51.43
2019-03-23T17:26:29.115Z,48.50
2019-03-23T17:29:02.142Z,43.37
2019-03-23T17:31:34.254Z,38.80
2019-03-23T17:34:06.911Z,44.73
2019-03-23T17:36:49.436Z,45.17
2019-03-23T17:39:23.039Z,40.60
2019-03-23T17:42:15.785Z,41.27
2019-03-23T17:44:47.363Z,40.23
2019-03-23T17:47:19.899Z,42.77
2019-03-23T17:49:53.330Z,45.20
2019-03-23T17:52:30.726Z,39.47
2019-03-23T17:55:12.707Z,41.17
2019-03-23T17:57:44.145Z,43.77
2019-03-23T18:00:22.297Z,42.83
2019-03-23T18:02:53.361Z,43.80
2019-03-23T18:05:26.209Z,43.93
2019-03-23T18:07:59.187Z,42.50
2019-03-23T18:10:31.464Z,47.30
2019-03-23T18:13:16.149Z,43.03
2019-03-23T18:15:40.784Z,43.63
2019-03-23T18:18:13.149Z,48.13
2019-03-23T18:20:47.587Z,44.20
2019-03-23T18:23:22.517Z,45.07
2019-03-23T18:25:55.109Z,44.90
2019-03-23T18:28:28.533Z,43.03
2019-03-23T18:31:02.505Z,43.63
2019-03-23T18:33:33.467Z,42.10
2019-03-23T18:36:07.351Z,49.30
2019-03-23T18:38:41.622Z,45.33
2019-03-23T18:41:16.516Z,45.77
2019-03-23T18:43:49.701Z,54.57
2019-03-23T18:46:24.681Z,59.97
2019-03-23T18:48:56.302Z,51.60
2019-03-23T18:51:31.488Z,50.33
2019-03-23T18:54:07.857Z,58.23
2019-03-23T18:56:55.569Z,49.63
2019-03-23T18:59:29.079Z,54.53
2019-03-23T19:02:02.511Z,52.30
2019-03-23T19:04:33.534Z,50.90
2019-03-23T19:07:07.710Z,51.10
2019-03-23T19:09:41.313Z,52.73
2019-03-23T19:12:17.019Z,49.60
2019-03-23T19:14:52.969Z,52.50
2019-03-23T19:17:43.069Z,51.83
2019-03-23T19:20:16.622Z,52.37
2019-03-23T19:22:54.179Z,54.20
2019-03-23T19:25:32.987Z,54.30
2019-03-23T19:28:07.634Z,57.93
2019-03-23T19:30:59.865Z,62.40
2019-03-23T19:33:37.834Z,57.73
2019-03-23T19:36:11.773Z,55.10
2019-03-23T19:38:45.241Z,54.73
2019-03-23T19:41:20.553Z,56.03
2019-03-23T19:43:56.759Z,52.60
2019-03-23T19:46:28.824Z,55.50
2019-03-23T19:49:04.210Z,64.00
2019-03-23T19:51:39.146Z,59.40
2019-03-23T19:54:25.828Z,53.83
2019-03-23T19:56:58.772Z,62.50
2019-03-23T19:59:30.193Z,50.03
2019-03-23T20:02:08.154Z,54.90
2019-03-23T20:04:41.977Z,60.60
2019-03-23T20:07:33.369Z,46.90
2019-03-23T20:10:07.213Z,48.80
2019-03-23T20:12:39.524Z,49.47
2019-03-23T20:15:14.418Z,47.20
2019-03-23T20:17:48.136Z,47.30
2019-03-23T20:20:20.872Z,49.20
2019-03-23T20:22:55.556Z,44.07
2019-03-23T20:25:31.225Z,41.80
2019-03-23T20:28:03.021Z,48.10
2019-03-23T20:30:37.115Z,38.40
2019-03-23T20:33:19.063Z,47.33
2019-03-23T20:35:43.954Z,44.17
2019-03-23T20:38:17.258Z,43.97
2019-03-23T20:40:51.765Z,39.67
2019-03-23T20:43:25.986Z,38.70
2019-03-23T20:45:56.991Z,41.93
2019-03-23T20:48:29.264Z,43.93
2019-03-23T20:51:02.717Z,46.70
2019-03-23T20:53:52.320Z,42.80
2019-03-23T20:56:26.197Z,45.20
2019-03-23T20:59:00.377Z,42.00
2019-03-23T21:01:34.261Z,48.60
2019-03-23T21:04:07.313Z,41.60
2019-03-23T21:06:43.357Z,41.80
2019-03-23T21:09:26.325Z,42.10
2019-03-23T21:11:58.554Z,39.20
2019-03-23T21:14:30.617Z,40.60
2019-03-23T21:17:02.657Z,35.00
2019-03-23T21:19:36.700Z,38.63
2019-03-23T21:22:10.689Z,38.80
2019-03-23T21:24:43.267Z,42.50
2019-03-23T21:27:15.911Z,39.90
2019-03-23T21:29:48.837Z,37.60
2019-03-23T21:32:20.349Z,35.77
2019-03-23T21:35:10.213Z,37.27
2019-03-23T21:37:41.968Z,33.30
2019-03-23T21:40:13.853Z,41.03
2019-03-23T21:43:03.347Z,39.40
2019-03-23T21:45:53.054Z,33.53
2019-03-23T21:48:25.719Z,37.07
2019-03-23T21:50:59.220Z,40.57
2019-03-23T21:53:34.376Z,30.77
2019-03-23T21:56:05.463Z,35.33
2019-03-23T21:58:43.406Z,36.37
2019-03-23T22:01:19.516Z,31.30
2019-03-23T22:03:53.181Z,35.40
2019-03-23T22:06:27.545Z,33.50
2019-03-23T22:09:04.553Z,42.77
2019-03-23T22:11:54.344Z,29.70
2019-03-23T22:14:28.065Z,31.60
2019-03-23T22:17:05.799Z,36.17
2019-03-23T22:19:46.442Z,37.30
2019-03-23T22:22:19.105Z,37.90
2019-03-23T22:24:51.639Z,37.23
2019-03-23T22:27:23.538Z,30.77
2019-03-23T22:30:14.134Z,33.20
2019-03-23T22:32:46.694Z,29.57
2019-03-23T22:35:21.236Z,34.07
2019-03-23T22:37:54.609Z,32.80
2019-03-23T22:40:28.312Z,32.90
2019-03-23T22:43:02.426Z,30.83
2019-03-23T22:45:50.998Z,31.23
2019-03-23T22:48:24.431Z,35.43
2019-03-23T22:50:57.547Z,31.07
2019-03-23T22:53:47.132Z,31.77
2019-03-23T22:56:33.623Z,30.10
2019-03-23T22:59:04.646Z,28.03
2019-03-23T23:01:38.443Z,32.97
2019-03-23T23:04:13.343Z,28.03
2019-03-23T23:06:46.481Z,28.63
2019-03-23T23:09:21.409Z,32.80
2019-03-23T23:11:52.711Z,34.60
2019-03-23T23:14:25.841Z,46.30
2019-03-23T23:17:00.040Z,31.47
2019-03-23T23:19:32.816Z,28.37
2019-03-23T23:22:04.846Z,34.47
2019-03-23T23:24:36.870Z,30.10
2019-03-23T23:27:15.856Z,26.63
2019-03-23T23:30:12.502Z,32.00
2019-03-23T23:32:50.580Z,34.17
2019-03-23T23:35:23.973Z,27.60
2019-03-23T23:37:55.134Z,31.93
2019-03-23T23:40:26.354Z,28.93
2019-03-23T23:42:59.807Z,26.63
2019-03-23T23:45:33.188Z,26.30
2019-03-23T23:48:06.997Z,27.10
2019-03-23T23:50:40.067Z,24.97
2019-03-23T23:53:12.822Z,31.10
2019-03-23T23:55:44.959Z,25.97
2019-03-23T23:58:17.102Z,25.50
